Time;durP1;ratioP1;P1;durP2;ratioP2;P2;SDS_P1;SDS_P2;PMS_P1;PMS_P2;Temp;Humidity;BMP_temperature;BMP_pressure;BME280_temperature;BME280_humidity;BME280_pressure;Samples;Min_cycle;Max_cycle;Signal;HPM_P1;HPM_P2
2023/09/23 00:01:37;;;;;;;8.45;1.92;;;;;;;;;;4978537;28;20829;-68
2023/09/23 00:04:04;;;;;;;5.60;1.60;;;;;;;;;;4978991;28;20493;-69
2023/09/23 00:06:30;;;;;;;5.70;1.40;;;;;;;;;;4977341;28;20372;-69
2023/09/23 00:08:56;;;;;;;6.38;1.35;;;;;;;;;;4978614;28;20692;-69
2023/09/23 00:11:22;;;;;;;4.18;1.27;;;;;;;;;;4972153;28;20034;-67
2023/09/23 00:13:48;;;;;;;5.35;1.45;;;;;;;;;;4977535;28;20108;-67
2023/09/23 00:16:15;;;;;;;5.65;1.50;;;;;;;;;;4978048;28;20034;-66
2023/09/23 00:18:43;;;;;;;6.30;1.40;;;;;;;;;;4977210;28;20474;-67
2023/09/23 00:21:09;;;;;;;6.90;1.50;;;;;;;;;;4977532;28;20161;-67
2023/09/23 00:23:35;;;;;;;6.63;1.50;;;;;;;;;;4974923;28;20464;-67
2023/09/23 00:26:02;;;;;;;4.85;1.40;;;;;;;;;;4977518;28;20088;-67
2023/09/23 00:28:30;;;;;;;6.45;1.30;;;;;;;;;;4975543;28;20037;-66
2023/09/23 00:31:10;;;;;;;7.07;1.60;;;;;;;;;;4975337;28;20030;-69
2023/09/23 00:33:37;;;;;;;6.07;1.70;;;;;;;;;;4973475;28;20034;-69
2023/09/23 00:36:10;;;;;;;5.65;1.40;;;;;;;;;;4977739;28;20030;-68
2023/09/23 00:38:37;;;;;;;4.93;1.30;;;;;;;;;;4974486;28;20037;-69
2023/09/23 00:41:06;;;;;;;5.20;1.25;;;;;;;;;;4976744;28;20089;-68
2023/09/23 00:43:35;;;;;;;5.03;1.20;;;;;;;;;;4973624;28;20475;-68
2023/09/23 00:46:06;;;;;;;7.88;1.50;;;;;;;;;;4977711;28;20018;-68
2023/09/23 00:48:44;;;;;;;6.53;1.25;;;;;;;;;;4973520;28;20108;-67
2023/09/23 00:51:10;;;;;;;4.40;1.17;;;;;;;;;;4975304;28;20065;-68
2023/09/23 00:53:39;;;;;;;6.53;1.40;;;;;;;;;;4972073;28;20029;-69
2023/09/23 00:56:06;;;;;;;7.85;1.40;;;;;;;;;;4975539;28;20141;-69
2023/09/23 00:58:32;;;;;;;4.47;1.00;;;;;;;;;;4970484;28;20689;-69
2023/09/23 01:00:58;;;;;;;4.65;1.00;;;;;;;;;;4973643;28;20042;-69
2023/09/23 01:03:24;;;;;;;3.75;0.88;;;;;;;;;;4973229;28;20079;-69
2023/09/23 01:06:04;;;;;;;5.55;1.25;;;;;;;;;;4976801;28;20128;-69
2023/09/23 01:08:30;;;;;;;4.20;1.27;;;;;;;;;;4975656;28;20025;-69
2023/09/23 01:10:57;;;;;;;3.83;1.08;;;;;;;;;;4978527;28;20052;-69
2023/09/23 01:13:24;;;;;;;3.85;1.10;;;;;;;;;;4977269;28;20850;-69
2023/09/23 01:15:51;;;;;;;4.35;1.27;;;;;;;;;;4991565;28;20528;-69
2023/09/23 01:18:18;;;;;;;6.90;1.30;;;;;;;;;;4971739;28;20026;-69
2023/09/23 01:20:48;;;;;;;5.60;1.20;;;;;;;;;;4973095;28;20033;-69
2023/09/23 01:23:15;;;;;;;4.03;1.13;;;;;;;;;;4975686;28;20153;-69
2023/09/23 01:25:42;;;;;;;3.58;1.00;;;;;;;;;;4977137;28;20468;-69
2023/09/23 01:28:11;;;;;;;6.47;1.50;;;;;;;;;;4972792;28;20149;-68
2023/09/23 01:30:37;;;;;;;6.15;1.48;;;;;;;;;;4973951;28;20052;-69
2023/09/23 01:33:12;;;;;;;4.18;1.23;;;;;;;;;;4976107;28;20516;-69
2023/09/23 01:35:38;;;;;;;5.13;1.30;;;;;;;;;;4973516;28;20471;-69
2023/09/23 01:38:05;;;;;;;6.70;1.58;;;;;;;;;;4975247;28;20034;-69
2023/09/23 01:40:31;;;;;;;6.32;1.80;;;;;;;;;;4974551;28;20061;-69
2023/09/23 01:42:58;;;;;;;9.15;1.90;;;;;;;;;;4973412;28;20071;-68
2023/09/23 01:45:26;;;;;;;5.70;1.50;;;;;;;;;;4974822;28;20015;-69
2023/09/23 01:47:52;;;;;;;5.57;1.65;;;;;;;;;;4977995;28;20575;-69
2023/09/23 01:50:19;;;;;;;5.50;1.65;;;;;;;;;;4977605;28;20026;-69
2023/09/23 01:52:45;;;;;;;7.53;1.90;;;;;;;;;;4974337;28;20392;-69
2023/09/23 01:55:12;;;;;;;6.03;1.63;;;;;;;;;;4976062;28;20146;-66
2023/09/23 01:57:39;;;;;;;5.20;1.63;;;;;;;;;;4969115;28;20782;-69
2023/09/23 02:00:12;;;;;;;6.55;1.75;;;;;;;;;;4977481;28;20117;-69
2023/09/23 02:02:39;;;;;;;5.93;1.73;;;;;;;;;;4976549;28;20057;-69
2023/09/23 02:05:06;;;;;;;6.13;1.83;;;;;;;;;;4972578;28;20027;-69
2023/09/23 02:07:32;;;;;;;7.70;1.80;;;;;;;;;;4974242;28;20108;-69
2023/09/23 02:09:58;;;;;;;6.53;1.60;;;;;;;;;;4976514;28;20026;-68
2023/09/23 02:12:24;;;;;;;6.78;1.83;;;;;;;;;;4972735;28;20584;-69
2023/09/23 02:14:53;;;;;;;6.28;1.58;;;;;;;;;;4977027;28;20030;-70
2023/09/23 02:17:19;;;;;;;8.63;2.05;;;;;;;;;;4977458;28;20052;-69
2023/09/23 02:19:46;;;;;;;7.93;1.88;;;;;;;;;;4973001;28;20707;-67
2023/09/23 02:22:13;;;;;;;5.85;1.75;;;;;;;;;;4974297;28;20073;-69
2023/09/23 02:24:40;;;;;;;8.13;1.88;;;;;;;;;;4970412;28;20022;-69
2023/09/23 02:27:06;;;;;;;5.45;1.73;;;;;;;;;;4974384;28;20327;-67
2023/09/23 02:29:33;;;;;;;5.18;1.60;;;;;;;;;;4973506;28;20539;-67
2023/09/23 02:32:00;;;;;;;5.97;1.80;;;;;;;;;;4977309;28;20037;-67
2023/09/23 02:34:27;;;;;;;7.35;1.63;;;;;;;;;;4969945;28;20356;-69
2023/09/23 02:36:53;;;;;;;6.05;1.60;;;;;;;;;;4976416;28;20038;-70
2023/09/23 02:39:20;;;;;;;5.65;1.60;;;;;;;;;;4973279;28;20034;-67
2023/09/23 02:41:50;;;;;;;7.35;1.60;;;;;;;;;;4970924;28;20052;-68
2023/09/23 02:44:19;;;;;;;8.27;1.65;;;;;;;;;;4974832;28;20035;-69
2023/09/23 02:46:46;;;;;;;7.00;1.80;;;;;;;;;;4973371;28;20037;-69
2023/09/23 02:49:13;;;;;;;5.97;1.65;;;;;;;;;;4973674;28;20155;-69
2023/09/23 02:51:41;;;;;;;5.50;1.70;;;;;;;;;;4971594;28;20141;-69
2023/09/23 02:54:08;;;;;;;5.18;1.50;;;;;;;;;;4974722;28;20048;-69
2023/09/23 02:56:34;;;;;;;6.07;1.48;;;;;;;;;;4970426;28;20033;-69
2023/09/23 02:59:04;;;;;;;4.15;1.30;;;;;;;;;;4972870;28;20057;-69
2023/09/23 03:01:30;;;;;;;4.47;1.35;;;;;;;;;;4973626;28;20743;-69
2023/09/23 03:04:06;;;;;;;5.43;1.50;;;;;;;;;;4975319;28;20606;-67
2023/09/23 03:06:32;;;;;;;6.40;1.65;;;;;;;;;;4989818;28;20665;-69
2023/09/23 03:08:59;;;;;;;3.45;1.20;;;;;;;;;;4977195;28;20482;-66
2023/09/23 03:11:26;;;;;;;6.28;1.75;;;;;;;;;;4971498;28;20061;-67
2023/09/23 03:13:53;;;;;;;4.70;1.40;;;;;;;;;;4977995;28;20100;-67
2023/09/23 03:16:28;;;;;;;5.05;1.50;;;;;;;;;;4978460;28;20275;-67
2023/09/23 03:18:59;;;;;;;5.25;1.60;;;;;;;;;;4979844;28;20452;-67
2023/09/23 03:21:26;;;;;;;5.10;1.35;;;;;;;;;;4976097;28;20476;-67
2023/09/23 03:23:53;;;;;;;5.80;1.70;;;;;;;;;;4978678;28;20029;-67
2023/09/23 03:26:19;;;;;;;5.63;1.50;;;;;;;;;;4981597;28;20235;-67
2023/09/23 03:28:46;;;;;;;6.38;1.67;;;;;;;;;;4977847;28;20038;-67
2023/09/23 03:31:14;;;;;;;6.35;1.88;;;;;;;;;;4977649;28;20038;-67
2023/09/23 03:33:42;;;;;;;4.03;1.38;;;;;;;;;;4977899;28;20029;-69
2023/09/23 03:36:14;;;;;;;6.43;1.60;;;;;;;;;;4977309;28;20499;-67
2023/09/23 03:38:41;;;;;;;6.75;1.60;;;;;;;;;;4975518;28;20126;-67
2023/09/23 03:41:07;;;;;;;6.38;1.60;;;;;;;;;;4978576;28;20042;-67
2023/09/23 03:43:33;;;;;;;4.50;1.20;;;;;;;;;;4978260;28;20156;-68
2023/09/23 03:45:59;;;;;;;6.13;1.40;;;;;;;;;;4973685;28;20026;-67
2023/09/23 03:48:28;;;;;;;4.45;1.10;;;;;;;;;;4976097;28;20350;-68
2023/09/23 03:50:55;;;;;;;7.78;1.40;;;;;;;;;;4980663;28;20498;-68
2023/09/23 03:53:22;;;;;;;6.50;1.17;;;;;;;;;;4977708;28;20030;-68
2023/09/23 03:55:54;;;;;;;5.43;1.10;;;;;;;;;;4978773;28;20479;-67
2023/09/23 03:58:21;;;;;;;4.60;1.05;;;;;;;;;;4979841;28;20034;-67
2023/09/23 04:00:47;;;;;;;5.38;1.15;;;;;;;;;;4974002;28;20590;-68
2023/09/23 04:03:14;;;;;;;4.75;0.90;;;;;;;;;;4976537;28;20037;-68
2023/09/23 04:05:40;;;;;;;5.80;1.35;;;;;;;;;;4976036;28;20029;-67
2023/09/23 04:08:06;;;;;;;5.18;1.10;;;;;;;;;;4976137;28;20078;-67
2023/09/23 04:10:39;;;;;;;5.78;1.10;;;;;;;;;;4975062;28;20117;-67
2023/09/23 04:13:06;;;;;;;4.68;1.20;;;;;;;;;;4977865;28;20298;-68
2023/09/23 04:15:33;;;;;;;4.78;0.90;;;;;;;;;;4974335;28;20472;-67
2023/09/23 04:18:02;;;;;;;5.05;0.90;;;;;;;;;;4977328;28;20574;-68
2023/09/23 04:20:28;;;;;;;5.55;1.05;;;;;;;;;;4974561;28;20057;-67
2023/09/23 04:22:55;;;;;;;4.15;0.85;;;;;;;;;;4996941;28;20161;-67
2023/09/23 04:25:21;;;;;;;3.58;0.98;;;;;;;;;;4976459;28;20031;-68
2023/09/23 04:27:49;;;;;;;4.38;1.10;;;;;;;;;;4976525;28;20062;-67
2023/09/23 04:30:15;;;;;;;5.05;1.40;;;;;;;;;;4973802;28;20026;-68
2023/09/23 04:32:42;;;;;;;4.78;1.23;;;;;;;;;;4975237;28;20104;-67
2023/09/23 04:35:08;;;;;;;5.22;1.13;;;;;;;;;;4978002;28;20030;-67
2023/09/23 04:37:37;;;;;;;4.78;1.10;;;;;;;;;;4975741;28;20022;-67
2023/09/23 04:40:06;;;;;;;4.80;1.25;;;;;;;;;;4978203;28;20026;-67
2023/09/23 04:42:32;;;;;;;6.05;1.52;;;;;;;;;;4972366;28;20558;-67
2023/09/23 04:44:58;;;;;;;4.10;1.25;;;;;;;;;;4981260;28;20065;-68
2023/09/23 04:47:24;;;;;;;4.45;1.40;;;;;;;;;;4975143;28;20492;-67
2023/09/23 04:49:51;;;;;;;6.65;1.88;;;;;;;;;;4978513;28;20239;-68
2023/09/23 04:52:19;;;;;;;5.70;1.48;;;;;;;;;;4976741;28;20043;-68
2023/09/23 04:54:45;;;;;;;4.20;1.20;;;;;;;;;;4976858;28;20479;-67
2023/09/23 04:57:13;;;;;;;5.97;1.00;;;;;;;;;;4977469;28;20372;-67
2023/09/23 04:59:39;;;;;;;4.60;1.00;;;;;;;;;;4975949;28;20034;-67
2023/09/23 05:02:06;;;;;;;6.45;1.40;;;;;;;;;;4977259;28;20451;-67
2023/09/23 05:04:32;;;;;;;7.25;1.70;;;;;;;;;;4975618;28;20464;-67
2023/09/23 05:07:00;;;;;;;8.15;1.70;;;;;;;;;;4978924;28;20033;-67
2023/09/23 05:09:27;;;;;;;6.88;1.83;;;;;;;;;;4973503;28;20113;-67
2023/09/23 05:11:53;;;;;;;7.30;2.13;;;;;;;;;;4976923;28;20034;-67
2023/09/23 05:14:20;;;;;;;6.32;1.60;;;;;;;;;;4977577;28;20042;-67
2023/09/23 05:16:48;;;;;;;7.38;1.98;;;;;;;;;;4974371;28;20057;-67
2023/09/23 05:19:14;;;;;;;6.30;1.60;;;;;;;;;;4980351;28;20542;-67
2023/09/23 05:21:42;;;;;;;4.70;1.30;;;;;;;;;;4977686;28;20401;-69
2023/09/23 05:24:10;;;;;;;4.88;1.30;;;;;;;;;;4979392;28;20038;-67
2023/09/23 05:26:36;;;;;;;5.00;1.20;;;;;;;;;;4973888;28;20033;-69
2023/09/23 05:29:02;;;;;;;7.03;1.45;;;;;;;;;;4990747;28;20037;-67
2023/09/23 05:31:29;;;;;;;5.70;1.38;;;;;;;;;;4975835;28;20026;-67
2023/09/23 05:33:55;;;;;;;8.52;1.40;;;;;;;;;;4975802;28;20034;-69
2023/09/23 05:36:21;;;;;;;5.65;1.38;;;;;;;;;;4980899;28;20034;-69
2023/09/23 05:38:47;;;;;;;7.70;1.50;;;;;;;;;;4979196;28;20297;-67
2023/09/23 05:41:14;;;;;;;11.98;2.00;;;;;;;;;;4974949;28;20038;-67
2023/09/23 05:43:40;;;;;;;10.00;2.10;;;;;;;;;;4976030;28;20041;-66
2023/09/23 05:46:09;;;;;;;8.07;1.67;;;;;;;;;;4976462;28;20560;-69
2023/09/23 05:48:35;;;;;;;6.78;1.50;;;;;;;;;;4993059;28;20030;-67
2023/09/23 05:51:05;;;;;;;6.97;1.60;;;;;;;;;;4977269;28;20026;-69
2023/09/23 05:53:32;;;;;;;8.60;1.70;;;;;;;;;;4973689;28;20030;-68
2023/09/23 05:55:58;;;;;;;6.43;1.80;;;;;;;;;;4974107;28;20018;-68
2023/09/23 05:58:25;;;;;;;6.53;1.73;;;;;;;;;;4973154;28;21442;-69
2023/09/23 06:00:51;;;;;;;5.47;1.55;;;;;;;;;;4977604;28;20036;-68
2023/09/23 06:03:17;;;;;;;8.13;1.50;;;;;;;;;;4979774;28;20038;-68
2023/09/23 06:05:44;;;;;;;6.55;1.50;;;;;;;;;;4975602;28;20022;-67
2023/09/23 06:08:12;;;;;;;6.80;1.65;;;;;;;;;;4976149;28;20384;-67
2023/09/23 06:10:39;;;;;;;6.50;1.58;;;;;;;;;;4975232;28;20487;-69
2023/09/23 06:13:09;;;;;;;8.38;2.40;;;;;;;;;;4974666;28;20473;-68
2023/09/23 06:15:35;;;;;;;9.73;3.58;;;;;;;;;;4975889;28;20463;-68
2023/09/23 06:18:02;;;;;;;12.32;2.75;;;;;;;;;;4975256;28;20499;-67
2023/09/23 06:20:28;;;;;;;10.50;2.45;;;;;;;;;;4974682;28;20337;-67
2023/09/23 06:22:56;;;;;;;9.20;2.55;;;;;;;;;;4974124;28;20190;-69
2023/09/23 06:25:22;;;;;;;9.05;2.70;;;;;;;;;;4974532;28;20113;-68
2023/09/23 06:27:48;;;;;;;9.43;4.18;;;;;;;;;;4976186;28;20315;-69
2023/09/23 06:30:15;;;;;;;8.50;3.10;;;;;;;;;;4974734;28;20029;-68
2023/09/23 06:32:42;;;;;;;7.32;2.30;;;;;;;;;;4972791;28;20469;-68
2023/09/23 06:35:10;;;;;;;7.95;2.40;;;;;;;;;;4976966;28;20037;-68
2023/09/23 06:37:36;;;;;;;6.78;2.08;;;;;;;;;;4972449;28;20030;-68
2023/09/23 06:40:02;;;;;;;7.43;2.20;;;;;;;;;;4973476;28;20041;-68
2023/09/23 06:42:28;;;;;;;8.38;2.20;;;;;;;;;;4971919;28;20107;-68
2023/09/23 06:44:55;;;;;;;8.27;2.13;;;;;;;;;;4977841;28;20018;-68
2023/09/23 06:47:21;;;;;;;6.50;1.95;;;;;;;;;;4973547;28;20033;-68
2023/09/23 06:49:47;;;;;;;7.03;2.10;;;;;;;;;;4972192;28;20026;-69
2023/09/23 06:52:13;;;;;;;5.90;1.60;;;;;;;;;;4975649;28;20096;-69
2023/09/23 06:54:39;;;;;;;6.63;1.58;;;;;;;;;;4971202;28;20030;-68
2023/09/23 06:57:05;;;;;;;6.63;2.10;;;;;;;;;;4974370;28;20054;-68
2023/09/23 06:59:31;;;;;;;12.02;2.65;;;;;;;;;;4972036;28;20034;-68
2023/09/23 07:01:58;;;;;;;5.57;1.60;;;;;;;;;;4972228;28;20034;-68
2023/09/23 07:04:24;;;;;;;5.68;1.33;;;;;;;;;;4972706;28;20037;-68
2023/09/23 07:06:50;;;;;;;6.50;1.42;;;;;;;;;;4973197;28;20022;-69
2023/09/23 07:09:16;;;;;;;8.02;1.70;;;;;;;;;;4975286;28;20491;-68
2023/09/23 07:11:42;;;;;;;4.90;1.23;;;;;;;;;;4975262;28;20288;-68
2023/09/23 07:14:08;;;;;;;5.78;1.20;;;;;;;;;;4976427;28;20034;-67
2023/09/23 07:16:35;;;;;;;6.45;1.30;;;;;;;;;;4972118;28;20037;-67
2023/09/23 07:19:01;;;;;;;5.03;1.27;;;;;;;;;;4973672;28;20279;-67
2023/09/23 07:21:29;;;;;;;4.60;1.20;;;;;;;;;;4971425;28;20116;-68
2023/09/23 07:23:55;;;;;;;4.40;1.25;;;;;;;;;;4975630;28;20060;-68
2023/09/23 07:26:21;;;;;;;8.15;1.50;;;;;;;;;;4973792;28;20538;-68
2023/09/23 07:28:50;;;;;;;7.00;1.42;;;;;;;;;;4973989;28;20060;-68
2023/09/23 07:31:17;;;;;;;6.13;1.50;;;;;;;;;;4972737;28;20039;-68
2023/09/23 07:33:43;;;;;;;6.70;1.38;;;;;;;;;;4970927;28;20759;-69
2023/09/23 07:36:12;;;;;;;5.13;1.60;;;;;;;;;;4974166;28;20038;-69
2023/09/23 07:38:39;;;;;;;8.73;1.70;;;;;;;;;;4969573;28;20054;-68
2023/09/23 07:41:06;;;;;;;4.95;1.50;;;;;;;;;;4975193;28;20041;-68
2023/09/23 07:43:32;;;;;;;6.72;1.63;;;;;;;;;;4971609;28;20167;-68
2023/09/23 07:45:58;;;;;;;7.43;1.63;;;;;;;;;;4973902;28;20096;-68
2023/09/23 07:48:25;;;;;;;6.25;1.20;;;;;;;;;;4972333;28;20030;-68
2023/09/23 07:50:51;;;;;;;6.00;1.20;;;;;;;;;;4974676;28;20033;-67
2023/09/23 07:53:17;;;;;;;8.35;1.65;;;;;;;;;;4976717;28;20038;-68
2023/09/23 07:55:43;;;;;;;5.78;1.20;;;;;;;;;;4971584;28;20046;-68
2023/09/23 07:58:10;;;;;;;6.05;1.33;;;;;;;;;;4973622;28;20039;-68
2023/09/23 08:00:36;;;;;;;6.68;1.67;;;;;;;;;;4973412;28;20122;-68
2023/09/23 08:03:02;;;;;;;5.10;1.48;;;;;;;;;;4977971;28;20041;-68
2023/09/23 08:05:29;;;;;;;9.70;1.70;;;;;;;;;;4973099;28;20468;-69
2023/09/23 08:07:55;;;;;;;7.93;1.55;;;;;;;;;;4976617;28;20029;-68
2023/09/23 08:10:22;;;;;;;7.10;1.50;;;;;;;;;;4977968;28;20185;-68
2023/09/23 08:12:48;;;;;;;6.53;1.48;;;;;;;;;;4977298;28;20346;-68
2023/09/23 08:15:14;;;;;;;8.57;1.48;;;;;;;;;;4978776;28;20036;-68
2023/09/23 08:17:41;;;;;;;7.57;1.45;;;;;;;;;;4973710;28;20814;-68
2023/09/23 08:20:17;;;;;;;7.45;1.40;;;;;;;;;;4976106;28;20033;-68
2023/09/23 08:22:47;;;;;;;8.43;1.92;;;;;;;;;;4976316;28;20045;-68
2023/09/23 08:25:15;;;;;;;5.97;1.67;;;;;;;;;;4976139;28;20134;-68
2023/09/23 08:27:41;;;;;;;6.03;1.48;;;;;;;;;;4974845;28;20096;-68
2023/09/23 08:30:09;;;;;;;6.70;1.52;;;;;;;;;;4977418;28;20029;-68
2023/09/23 08:32:36;;;;;;;9.13;1.80;;;;;;;;;;4973312;28;20034;-68
2023/09/23 08:35:02;;;;;;;7.45;1.80;;;;;;;;;;4978531;28;20048;-68
2023/09/23 08:37:29;;;;;;;7.35;1.98;;;;;;;;;;4975137;28;20137;-69
2023/09/23 08:39:55;;;;;;;9.93;2.20;;;;;;;;;;4976643;28;20029;-69
2023/09/23 08:42:24;;;;;;;8.40;1.83;;;;;;;;;;4978775;28;20077;-69
2023/09/23 08:44:50;;;;;;;8.27;1.98;;;;;;;;;;4973961;28;20330;-68
2023/09/23 08:47:20;;;;;;;6.82;1.63;;;;;;;;;;4976873;28;20036;-69
2023/09/23 08:49:49;;;;;;;7.45;1.92;;;;;;;;;;4976055;28;20137;-69
2023/09/23 08:52:19;;;;;;;8.77;1.77;;;;;;;;;;4980489;28;20092;-69
2023/09/23 08:54:49;;;;;;;7.40;1.80;;;;;;;;;;4976309;28;20018;-69
2023/09/23 08:57:19;;;;;;;7.07;1.77;;;;;;;;;;4975430;28;20038;-68
2023/09/23 08:59:46;;;;;;;10.52;2.30;;;;;;;;;;4972101;28;20039;-69
2023/09/23 09:02:22;;;;;;;6.72;1.70;;;;;;;;;;4976546;28;20033;-70
2023/09/23 09:04:52;;;;;;;7.63;1.85;;;;;;;;;;4977661;28;20494;-70
2023/09/23 09:07:18;;;;;;;7.97;1.85;;;;;;;;;;4980506;28;20037;-70
2023/09/23 09:09:44;;;;;;;11.35;3.15;;;;;;;;;;4972139;28;20054;-68
2023/09/23 09:12:11;;;;;;;8.43;2.13;;;;;;;;;;4979361;28;20080;-69
2023/09/23 09:14:37;;;;;;;9.93;1.60;;;;;;;;;;4974279;28;20120;-68
2023/09/23 09:17:09;;;;;;;6.72;1.30;;;;;;;;;;4978274;28;20404;-69
2023/09/23 09:19:39;;;;;;;6.75;1.30;;;;;;;;;;4972162;28;20092;-69
2023/09/23 09:22:05;;;;;;;5.85;1.48;;;;;;;;;;4978677;28;20042;-69
2023/09/23 09:24:33;;;;;;;5.55;1.30;;;;;;;;;;4974464;28;20029;-69
2023/09/23 09:26:59;;;;;;;6.50;1.50;;;;;;;;;;4978779;28;20665;-68
2023/09/23 09:29:26;;;;;;;7.68;1.75;;;;;;;;;;4975721;28;20114;-69
2023/09/23 09:31:53;;;;;;;6.45;1.50;;;;;;;;;;4977977;28;20065;-70
2023/09/23 09:34:24;;;;;;;7.47;1.60;;;;;;;;;;4977038;28;20036;-70
2023/09/23 09:36:56;;;;;;;7.22;1.55;;;;;;;;;;4984049;28;20528;-69
2023/09/23 09:39:26;;;;;;;7.20;1.60;;;;;;;;;;4979243;28;20450;-69
2023/09/23 09:41:53;;;;;;;7.60;1.65;;;;;;;;;;4972878;28;20388;-68
2023/09/23 09:44:23;;;;;;;5.38;1.20;;;;;;;;;;4975697;28;20026;-71
2023/09/23 09:46:51;;;;;;;7.57;2.72;;;;;;;;;;4975384;28;20033;-70
2023/09/23 09:49:17;;;;;;;7.90;1.77;;;;;;;;;;4976112;28;20022;-71
2023/09/23 09:51:48;;;;;;;6.97;1.52;;;;;;;;;;4992087;28;20814;-69
2023/09/23 09:54:18;;;;;;;7.05;1.88;;;;;;;;;;4980054;28;20423;-69
2023/09/23 09:56:47;;;;;;;7.38;1.80;;;;;;;;;;4973846;28;20141;-70
2023/09/23 09:59:27;;;;;;;9.32;1.67;;;;;;;;;;4978282;28;20029;-69
2023/09/23 10:01:55;;;;;;;5.82;1.33;;;;;;;;;;4978060;28;20447;-69
2023/09/23 10:04:22;;;;;;;7.65;1.85;;;;;;;;;;4978509;28;20437;-69
2023/09/23 10:06:55;;;;;;;10.35;2.03;;;;;;;;;;4973454;28;20436;-69
2023/09/23 10:09:27;;;;;;;6.55;1.70;;;;;;;;;;4976151;28;20018;-70
2023/09/23 10:11:54;;;;;;;7.57;1.63;;;;;;;;;;4975325;28;20111;-70
2023/09/23 10:14:21;;;;;;;9.20;2.08;;;;;;;;;;4981758;28;20034;-70
2023/09/23 10:16:59;;;;;;;11.35;2.15;;;;;;;;;;4975789;28;20136;-70
2023/09/23 10:19:32;;;;;;;7.03;1.40;;;;;;;;;;4992456;28;20041;-70
2023/09/23 10:22:21;;;;;;;7.20;1.60;;;;;;;;;;4980034;28;20037;-70
2023/09/23 10:25:11;;;;;;;7.45;1.63;;;;;;;;;;4983162;28;20038;-70
2023/09/23 10:27:39;;;;;;;8.65;1.77;;;;;;;;;;4993108;28;20051;-70
2023/09/23 10:30:06;;;;;;;7.80;1.80;;;;;;;;;;4977886;28;20033;-69
2023/09/23 10:32:32;;;;;;;8.38;2.05;;;;;;;;;;4977985;28;20038;-70
2023/09/23 10:34:59;;;;;;;8.55;2.00;;;;;;;;;;4976750;28;20026;-70
2023/09/23 10:37:26;;;;;;;8.35;1.73;;;;;;;;;;4982902;28;20045;-70
2023/09/23 10:39:52;;;;;;;6.60;1.35;;;;;;;;;;4975422;28;20554;-70
2023/09/23 10:42:19;;;;;;;5.95;1.33;;;;;;;;;;4980544;28;20043;-70
2023/09/23 10:44:48;;;;;;;7.00;1.52;;;;;;;;;;4976262;28;20113;-70
2023/09/23 10:47:14;;;;;;;6.57;1.50;;;;;;;;;;4978672;28;20030;-70
2023/09/23 10:49:40;;;;;;;9.43;1.73;;;;;;;;;;4972708;28;20429;-70
2023/09/23 10:52:07;;;;;;;8.40;1.73;;;;;;;;;;4975931;28;20038;-70
2023/09/23 10:54:35;;;;;;;7.05;1.80;;;;;;;;;;4973394;28;20061;-69
2023/09/23 10:57:01;;;;;;;8.82;1.85;;;;;;;;;;4977834;28;20045;-70
2023/09/23 10:59:28;;;;;;;10.30;1.65;;;;;;;;;;4974420;28;20037;-70
2023/09/23 11:01:57;;;;;;;9.15;1.80;;;;;;;;;;4977765;28;20044;-69
2023/09/23 11:04:24;;;;;;;7.82;1.70;;;;;;;;;;4974375;28;20568;-68
2023/09/23 11:06:51;;;;;;;6.85;1.70;;;;;;;;;;4978673;28;20586;-70
2023/09/23 11:09:20;;;;;;;6.85;2.05;;;;;;;;;;4978541;28;20041;-69
2023/09/23 11:11:47;;;;;;;8.65;2.00;;;;;;;;;;4973485;28;20112;-69
2023/09/23 11:14:14;;;;;;;8.63;2.28;;;;;;;;;;4981926;28;20069;-69
2023/09/23 11:16:44;;;;;;;11.63;2.42;;;;;;;;;;4980063;28;20060;-70
2023/09/23 11:19:10;;;;;;;10.18;3.03;;;;;;;;;;4983169;28;20482;-70
2023/09/23 11:21:44;;;;;;;8.13;2.55;;;;;;;;;;4980999;28;20111;-69
2023/09/23 11:24:10;;;;;;;16.08;2.20;;;;;;;;;;4985411;28;20210;-70
2023/09/23 11:26:40;;;;;;;9.88;1.98;;;;;;;;;;4978491;28;20454;-70
2023/09/23 11:29:07;;;;;;;9.27;1.92;;;;;;;;;;4980391;28;20212;-69
2023/09/23 11:31:33;;;;;;;8.43;2.08;;;;;;;;;;4982502;28;20033;-71
2023/09/23 11:33:59;;;;;;;7.57;2.10;;;;;;;;;;4982650;28;20034;-70
2023/09/23 11:36:25;;;;;;;8.32;2.35;;;;;;;;;;4977242;28;20049;-68
2023/09/23 11:38:52;;;;;;;8.65;2.15;;;;;;;;;;4982093;28;20062;-69
2023/09/23 11:41:18;;;;;;;9.02;1.90;;;;;;;;;;4981090;28;20038;-69
2023/09/23 11:43:44;;;;;;;7.57;2.05;;;;;;;;;;4979454;28;20109;-69
2023/09/23 11:46:14;;;;;;;6.70;1.80;;;;;;;;;;4984255;28;20041;-69
2023/09/23 11:48:41;;;;;;;8.88;2.20;;;;;;;;;;4978560;28;20030;-71
2023/09/23 11:51:07;;;;;;;7.28;1.90;;;;;;;;;;4981518;28;20040;-69
2023/09/23 11:53:36;;;;;;;7.80;2.45;;;;;;;;;;4980413;28;20664;-69
2023/09/23 11:56:02;;;;;;;10.93;2.50;;;;;;;;;;4986098;28;20025;-69
2023/09/23 11:58:28;;;;;;;9.63;2.28;;;;;;;;;;4978086;28;20118;-71
2023/09/23 12:00:56;;;;;;;6.10;2.22;;;;;;;;;;4979482;28;20037;-70
2023/09/23 12:03:22;;;;;;;8.60;4.18;;;;;;;;;;4979909;28;20276;-70
2023/09/23 12:05:50;;;;;;;7.80;2.55;;;;;;;;;;4983680;28;20033;-70
2023/09/23 12:08:16;;;;;;;6.22;1.90;;;;;;;;;;4977275;28;20026;-70
2023/09/23 12:10:42;;;;;;;5.93;1.50;;;;;;;;;;4976013;28;20093;-71
2023/09/23 12:13:08;;;;;;;9.15;1.70;;;;;;;;;;4979589;28;20048;-70
2023/09/23 12:15:35;;;;;;;9.57;1.70;;;;;;;;;;4978111;28;20032;-70
2023/09/23 12:18:01;;;;;;;9.82;1.90;;;;;;;;;;4983093;28;20545;-70
2023/09/23 12:20:28;;;;;;;6.97;1.50;;;;;;;;;;4974753;28;20038;-70
2023/09/23 12:22:57;;;;;;;5.60;1.52;;;;;;;;;;4979552;28;20030;-71
2023/09/23 12:25:23;;;;;;;5.68;1.20;;;;;;;;;;4981198;28;20844;-70
2023/09/23 12:27:49;;;;;;;7.28;2.80;;;;;;;;;;4978639;28;20026;-72
2023/09/23 12:30:19;;;;;;;5.47;1.63;;;;;;;;;;4977394;28;20255;-72
2023/09/23 12:32:45;;;;;;;12.95;9.40;;;;;;;;;;4973708;28;20040;-70
2023/09/23 12:35:12;;;;;;;6.50;2.35;;;;;;;;;;4976307;28;20022;-69
2023/09/23 12:37:38;;;;;;;11.98;7.45;;;;;;;;;;4977381;28;20030;-70
2023/09/23 12:40:06;;;;;;;7.80;3.00;;;;;;;;;;4976936;28;20033;-69
2023/09/23 12:42:33;;;;;;;20.92;17.23;;;;;;;;;;4977409;28;20231;-67
2023/09/23 12:44:59;;;;;;;9.55;3.33;;;;;;;;;;4977430;28;20026;-68
2023/09/23 12:47:25;;;;;;;12.27;4.75;;;;;;;;;;4978523;28;20034;-68
2023/09/23 12:49:51;;;;;;;5.15;1.23;;;;;;;;;;4979134;28;20029;-67
2023/09/23 12:52:18;;;;;;;13.88;8.63;;;;;;;;;;4979301;28;20044;-67
2023/09/23 12:54:45;;;;;;;11.82;5.95;;;;;;;;;;4977677;28;20269;-67
2023/09/23 12:57:13;;;;;;;6.30;2.85;;;;;;;;;;4979321;28;20330;-69
2023/09/23 12:59:39;;;;;;;5.45;1.80;;;;;;;;;;4976855;28;20435;-70
2023/09/23 13:02:05;;;;;;;9.75;5.20;;;;;;;;;;4978369;28;20343;-70
2023/09/23 13:04:31;;;;;;;7.32;2.10;;;;;;;;;;4974050;28;20076;-70
2023/09/23 13:06:57;;;;;;;2.88;0.90;;;;;;;;;;4977967;28;20022;-68
2023/09/23 13:09:24;;;;;;;7.63;2.42;;;;;;;;;;4977662;28;20113;-69
2023/09/23 13:11:53;;;;;;;5.60;1.50;;;;;;;;;;4978903;28;20500;-69
2023/09/23 13:14:21;;;;;;;3.33;1.17;;;;;;;;;;4977152;28;20038;-69
2023/09/23 13:16:48;;;;;;;4.18;1.00;;;;;;;;;;4974112;28;20439;-68
2023/09/23 13:19:15;;;;;;;3.45;1.00;;;;;;;;;;4979161;28;20894;-68
2023/09/23 13:21:41;;;;;;;3.67;0.95;;;;;;;;;;4972630;28;20073;-68
2023/09/23 13:24:07;;;;;;;3.63;1.05;;;;;;;;;;4977510;28;20065;-69
2023/09/23 13:26:33;;;;;;;4.63;1.10;;;;;;;;;;4973507;28;20026;-68
2023/09/23 13:29:00;;;;;;;3.35;0.90;;;;;;;;;;4976760;28;20033;-68
2023/09/23 13:31:26;;;;;;;4.45;1.00;;;;;;;;;;4973633;28;21366;-70
2023/09/23 13:33:52;;;;;;;4.10;0.90;;;;;;;;;;4978690;28;20492;-68
2023/09/23 13:36:18;;;;;;;4.20;1.10;;;;;;;;;;4978920;28;20054;-68
2023/09/23 13:38:46;;;;;;;4.95;0.80;;;;;;;;;;4973236;28;20049;-68
2023/09/23 13:41:14;;;;;;;3.85;0.93;;;;;;;;;;4976313;28;20294;-67
2023/09/23 13:43:40;;;;;;;2.80;0.90;;;;;;;;;;4976441;28;20030;-67
2023/09/23 13:46:06;;;;;;;3.65;1.20;;;;;;;;;;4979731;28;20540;-71
2023/09/23 13:48:32;;;;;;;3.92;0.90;;;;;;;;;;4974264;28;20030;-70
2023/09/23 13:50:58;;;;;;;3.33;0.90;;;;;;;;;;4981431;28;20056;-69
2023/09/23 13:53:24;;;;;;;4.00;0.93;;;;;;;;;;4974336;28;20033;-67
2023/09/23 13:55:51;;;;;;;3.78;0.80;;;;;;;;;;4978844;28;20741;-68
2023/09/23 13:58:17;;;;;;;2.80;0.77;;;;;;;;;;4978913;28;20049;-68
2023/09/23 14:00:43;;;;;;;4.13;0.85;;;;;;;;;;4974023;28;21526;-68
2023/09/23 14:03:09;;;;;;;3.75;1.10;;;;;;;;;;4980747;28;20038;-70
2023/09/23 14:05:35;;;;;;;2.75;0.75;;;;;;;;;;4976736;28;20022;-70
2023/09/23 14:08:01;;;;;;;2.40;0.80;;;;;;;;;;4977612;28;20465;-71
2023/09/23 14:10:28;;;;;;;5.55;0.90;;;;;;;;;;4973958;28;20038;-71
2023/09/23 14:12:54;;;;;;;9.48;1.20;;;;;;;;;;4977649;28;20054;-70
2023/09/23 14:15:20;;;;;;;5.93;0.82;;;;;;;;;;4977835;28;20157;-71
2023/09/23 14:17:47;;;;;;;6.97;1.00;;;;;;;;;;4976235;28;20033;-70
2023/09/23 14:20:13;;;;;;;3.00;0.70;;;;;;;;;;4979859;28;20037;-70
2023/09/23 14:22:40;;;;;;;4.10;0.90;;;;;;;;;;4975134;28;20040;-71
2023/09/23 14:25:08;;;;;;;5.10;1.10;;;;;;;;;;4979725;28;20160;-70
2023/09/23 14:27:35;;;;;;;2.63;0.80;;;;;;;;;;4988622;28;20024;-71
2023/09/23 14:30:01;;;;;;;3.42;0.88;;;;;;;;;;4976409;28;20038;-68
2023/09/23 14:32:27;;;;;;;4.55;1.10;;;;;;;;;;4973461;28;20525;-69
2023/09/23 14:34:53;;;;;;;5.35;0.90;;;;;;;;;;4978037;28;20041;-68
2023/09/23 14:37:19;;;;;;;3.72;1.00;;;;;;;;;;4975998;28;20053;-69
2023/09/23 14:39:45;;;;;;;4.88;1.08;;;;;;;;;;4970732;28;20483;-71
2023/09/23 14:42:13;;;;;;;3.10;0.75;;;;;;;;;;4975114;28;20430;-76
2023/09/23 14:44:39;;;;;;;3.42;0.88;;;;;;;;;;4973097;28;20030;-77